Time;durP1;ratioP1;P1;durP2;ratioP2;P2;SDS_P1;SDS_P2;PMS_P1;PMS_P2;Temp;Humidity;BMP_temperature;BMP_pressure;BME280_temperature;BME280_humidity;BME280_pressure;Samples;Min_cycle;Max_cycle;Signal;HPM_P1;HPM_P2
2023/09/20 00:01:51;;;;;;;3.00;1.00;;;19.90;99.90;;;;;;5029007;28;20254;-66
2023/09/20 00:04:21;;;;;;;0.98;0.68;;;19.90;99.90;;;;;;5025860;28;20221;-67
2023/09/20 00:06:51;;;;;;;3.58;0.68;;;19.90;99.90;;;;;;5029159;28;20240;-67
2023/09/20 00:09:19;;;;;;;1.20;1.10;;;19.90;99.90;;;;;;5019486;28;20212;-67
2023/09/20 00:11:47;;;;;;;0.70;0.60;;;19.80;99.90;;;;;;5027476;28;20279;-67
2023/09/20 00:14:16;;;;;;;1.33;0.60;;;19.70;99.90;;;;;;5021379;28;20262;-67
2023/09/20 00:16:44;;;;;;;2.03;0.70;;;19.70;99.90;;;;;;5028760;28;20228;-65
2023/09/20 00:19:12;;;;;;;0.80;0.75;;;19.80;99.90;;;;;;5021853;28;20209;-67
2023/09/20 00:21:42;;;;;;;1.75;0.70;;;19.80;99.90;;;;;;5028215;28;20212;-67
2023/09/20 00:24:10;;;;;;;1.38;0.70;;;19.90;99.90;;;;;;5023332;28;20204;-67
2023/09/20 00:26:38;;;;;;;2.00;0.70;;;19.90;99.90;;;;;;5021807;28;20232;-67
2023/09/20 00:29:05;;;;;;;0.70;0.70;;;19.90;99.90;;;;;;5022347;28;20205;-66
2023/09/20 00:31:34;;;;;;;0.88;0.60;;;19.80;99.90;;;;;;5022332;28;20231;-66
2023/09/20 00:34:03;;;;;;;0.88;0.60;;;19.90;99.90;;;;;;5030062;28;20212;-67
2023/09/20 00:36:31;;;;;;;1.00;0.70;;;20.00;99.90;;;;;;5028693;28;20751;-67
2023/09/20 00:39:02;;;;;;;2.35;0.70;;;20.00;99.90;;;;;;5030054;28;20232;-68
2023/09/20 00:41:32;;;;;;;1.45;0.80;;;20.00;99.90;;;;;;5026554;28;20209;-67
2023/09/20 00:44:00;;;;;;;1.50;1.02;;;19.80;99.90;;;;;;5027447;28;20200;-65
2023/09/20 00:46:29;;;;;;;0.80;0.60;;;19.70;99.90;;;;;;5031629;28;20698;-66
2023/09/20 00:48:57;;;;;;;0.82;0.70;;;19.60;99.90;;;;;;5029141;28;20201;-67
2023/09/20 00:51:26;;;;;;;0.90;0.70;;;19.70;99.90;;;;;;5023825;28;20553;-67
2023/09/20 00:53:57;;;;;;;0.95;0.70;;;19.70;99.90;;;;;;5027659;28;20610;-67
2023/09/20 00:56:26;;;;;;;0.90;0.80;;;19.70;99.90;;;;;;5023942;28;20275;-67
2023/09/20 00:58:55;;;;;;;0.88;0.75;;;19.60;99.90;;;;;;5030284;28;20283;-67
2023/09/20 01:01:26;;;;;;;0.88;0.70;;;19.60;99.90;;;;;;5025827;28;20352;-67
2023/09/20 01:03:55;;;;;;;1.10;0.75;;;19.60;99.90;;;;;;5030835;28;20205;-67
2023/09/20 01:06:26;;;;;;;0.90;0.70;;;19.50;99.90;;;;;;5024290;28;20248;-67
2023/09/20 01:08:55;;;;;;;1.20;0.90;;;19.60;99.90;;;;;;5032226;28;20223;-66
2023/09/20 01:11:25;;;;;;;1.60;0.80;;;19.50;99.90;;;;;;5030803;28;20278;-67
2023/09/20 01:13:54;;;;;;;1.92;1.08;;;19.40;99.90;;;;;;5028698;28;20624;-66
2023/09/20 01:16:22;;;;;;;0.80;0.60;;;19.50;99.90;;;;;;5027355;28;20741;-64
2023/09/20 01:18:50;;;;;;;1.58;0.85;;;19.80;99.90;;;;;;5022331;28;20208;-65
2023/09/20 01:21:19;;;;;;;1.15;0.75;;;19.90;99.90;;;;;;5031126;28;20283;-66
2023/09/20 01:23:49;;;;;;;1.75;1.00;;;19.90;99.90;;;;;;5023836;28;20591;-66
2023/09/20 01:26:18;;;;;;;1.00;0.65;;;19.90;99.90;;;;;;5024907;28;20224;-68
2023/09/20 01:28:46;;;;;;;1.63;0.88;;;19.80;99.90;;;;;;5031378;28;20213;-66
2023/09/20 01:31:14;;;;;;;0.60;0.50;;;19.60;99.90;;;;;;5029821;28;20220;-65
2023/09/20 01:33:42;;;;;;;0.80;0.60;;;19.50;99.90;;;;;;5027722;28;20235;-65
2023/09/20 01:36:09;;;;;;;0.73;0.73;;;19.40;99.90;;;;;;5025153;28;20374;-66
2023/09/20 01:38:37;;;;;;;0.85;0.60;;;19.30;99.90;;;;;;5025527;28;20208;-65
2023/09/20 01:41:07;;;;;;;0.80;0.60;;;19.40;99.90;;;;;;5024877;28;20663;-65
2023/09/20 01:43:37;;;;;;;0.80;0.70;;;19.50;99.90;;;;;;5038336;28;20235;-66
2023/09/20 01:46:05;;;;;;;0.88;0.85;;;19.50;99.90;;;;;;5032065;28;20304;-65
2023/09/20 01:48:34;;;;;;;0.60;0.50;;;19.50;99.90;;;;;;5026670;28;20228;-66
2023/09/20 01:51:03;;;;;;;0.70;0.70;;;19.50;99.90;;;;;;5027307;28;20251;-65
2023/09/20 01:53:32;;;;;;;3.33;0.85;;;19.50;99.90;;;;;;5025775;28;20216;-66
2023/09/20 01:56:00;;;;;;;0.80;0.70;;;19.70;99.90;;;;;;5029024;28;20259;-66
2023/09/20 01:58:30;;;;;;;0.90;0.68;;;19.70;99.90;;;;;;5029496;28;20699;-65
2023/09/20 02:00:58;;;;;;;0.85;0.75;;;19.70;99.90;;;;;;5029711;28;20213;-66
2023/09/20 02:03:27;;;;;;;0.60;0.52;;;19.60;99.90;;;;;;5024997;28;20227;-66
2023/09/20 02:05:58;;;;;;;1.95;0.70;;;19.50;99.90;;;;;;5025248;28;20224;-66
2023/09/20 02:08:27;;;;;;;0.80;0.75;;;19.50;99.90;;;;;;5027868;28;20576;-66
2023/09/20 02:10:56;;;;;;;0.85;0.50;;;19.50;99.90;;;;;;5027704;28;20205;-66
2023/09/20 02:13:24;;;;;;;2.35;0.90;;;19.60;99.90;;;;;;5028517;28;20235;-66
2023/09/20 02:15:54;;;;;;;0.70;0.70;;;19.70;99.90;;;;;;5024890;28;20236;-66
2023/09/20 02:18:23;;;;;;;0.70;0.63;;;19.60;99.90;;;;;;5021052;28;20224;-66
2023/09/20 02:20:51;;;;;;;0.80;0.70;;;19.70;99.90;;;;;;5023553;28;20209;-66
2023/09/20 02:23:19;;;;;;;0.70;0.70;;;19.70;99.90;;;;;;5030076;28;20204;-66
2023/09/20 02:25:48;;;;;;;0.60;0.40;;;19.70;99.90;;;;;;5025407;28;20252;-66
2023/09/20 02:28:16;;;;;;;0.93;0.60;;;19.70;99.90;;;;;;5023340;28;20216;-66
2023/09/20 02:30:45;;;;;;;1.73;0.80;;;19.70;99.90;;;;;;5023033;28;20209;-66
2023/09/20 02:33:16;;;;;;;0.80;0.60;;;19.70;99.90;;;;;;5024482;28;20213;-65
2023/09/20 02:35:45;;;;;;;0.70;0.60;;;19.70;99.90;;;;;;5018887;28;20233;-66
2023/09/20 02:38:13;;;;;;;0.88;0.70;;;19.70;99.90;;;;;;5029096;28;20208;-66
2023/09/20 02:40:41;;;;;;;4.53;0.90;;;19.70;99.90;;;;;;5024342;28;20668;-66
2023/09/20 02:43:12;;;;;;;0.80;0.70;;;19.70;99.90;;;;;;5026891;28;20259;-66
2023/09/20 02:45:40;;;;;;;0.80;0.70;;;19.70;99.90;;;;;;5022833;28;20229;-66
2023/09/20 02:48:09;;;;;;;1.90;0.63;;;19.70;99.90;;;;;;5028770;28;20220;-68
2023/09/20 02:50:41;;;;;;;0.85;0.77;;;19.60;99.90;;;;;;5023692;28;20576;-67
2023/09/20 02:53:09;;;;;;;0.77;0.70;;;19.70;99.90;;;;;;5026101;28;20254;-66
2023/09/20 02:55:40;;;;;;;0.63;0.60;;;19.60;99.90;;;;;;5026227;28;20699;-66
2023/09/20 02:58:09;;;;;;;2.95;1.20;;;19.60;99.90;;;;;;5027630;28;20655;-67
2023/09/20 03:00:38;;;;;;;0.82;0.70;;;19.50;99.90;;;;;;5024120;28;20292;-67
2023/09/20 03:03:08;;;;;;;1.15;0.68;;;19.50;99.90;;;;;;5026149;28;20935;-66
2023/09/20 03:05:37;;;;;;;0.80;0.77;;;19.40;99.90;;;;;;5027851;28;20339;-66
2023/09/20 03:08:11;;;;;;;1.25;0.70;;;19.40;99.90;;;;;;5026622;28;20695;-67
2023/09/20 03:10:42;;;;;;;0.98;0.85;;;19.40;99.90;;;;;;5029681;28;20714;-67
2023/09/20 03:13:12;;;;;;;1.27;1.00;;;19.40;99.90;;;;;;5027552;28;20287;-67
2023/09/20 03:15:43;;;;;;;0.90;0.70;;;19.30;99.90;;;;;;5024536;28;20239;-67
2023/09/20 03:18:13;;;;;;;1.00;0.90;;;19.20;99.90;;;;;;5027417;28;20216;-67
2023/09/20 03:20:43;;;;;;;1.75;0.70;;;19.20;99.90;;;;;;5024275;28;20209;-66
2023/09/20 03:23:13;;;;;;;2.45;0.80;;;19.20;99.90;;;;;;5027545;28;20546;-66
2023/09/20 03:25:42;;;;;;;1.17;0.70;;;19.20;99.90;;;;;;5022462;28;20216;-65
2023/09/20 03:28:10;;;;;;;0.85;0.70;;;19.10;99.90;;;;;;5024689;28;20223;-67
2023/09/20 03:30:39;;;;;;;2.63;0.85;;;19.30;99.90;;;;;;5026743;28;20244;-67
2023/09/20 03:33:08;;;;;;;1.00;0.93;;;19.30;99.90;;;;;;5025056;28;20235;-66
2023/09/20 03:35:37;;;;;;;0.70;0.60;;;19.30;99.90;;;;;;5027119;28;20224;-66
2023/09/20 03:38:06;;;;;;;0.80;0.68;;;19.30;99.90;;;;;;5028261;28;20743;-66
2023/09/20 03:40:37;;;;;;;1.00;0.60;;;19.30;99.90;;;;;;5029942;28;20204;-66
2023/09/20 03:43:07;;;;;;;1.20;0.80;;;19.20;99.90;;;;;;5028346;28;20207;-66
2023/09/20 03:45:35;;;;;;;1.00;0.90;;;19.20;99.90;;;;;;5028583;28;20293;-67
2023/09/20 03:48:05;;;;;;;1.13;0.70;;;19.20;99.90;;;;;;5021540;28;20573;-66
2023/09/20 03:50:32;;;;;;;1.88;0.77;;;19.20;99.90;;;;;;5027641;28;20247;-66
2023/09/20 03:53:01;;;;;;;0.80;0.80;;;19.10;99.90;;;;;;5028513;28;20207;-67
2023/09/20 03:55:29;;;;;;;0.70;0.70;;;19.10;99.90;;;;;;5028423;28;20228;-66
2023/09/20 03:57:58;;;;;;;1.50;0.95;;;19.10;99.90;;;;;;5020937;28;20262;-67
2023/09/20 04:00:28;;;;;;;0.80;0.63;;;19.00;99.90;;;;;;5028906;28;20212;-66
2023/09/20 04:02:57;;;;;;;0.88;0.60;;;19.10;99.90;;;;;;5018612;28;20209;-67
2023/09/20 04:05:26;;;;;;;0.82;0.60;;;19.20;99.90;;;;;;5027897;28;20224;-65
2023/09/20 04:08:12;;;;;;;0.80;0.80;;;19.20;99.90;;;;;;5031467;28;20216;-65
2023/09/20 04:10:40;;;;;;;0.90;0.80;;;19.10;99.90;;;;;;5032757;28;20200;-65
2023/09/20 04:13:11;;;;;;;1.00;0.90;;;19.30;99.90;;;;;;5032441;28;20224;-65
2023/09/20 04:15:40;;;;;;;0.70;0.60;;;19.20;99.90;;;;;;5032780;28;20733;-65
2023/09/20 04:18:09;;;;;;;1.00;0.90;;;19.20;99.90;;;;;;5032979;28;20744;-66
2023/09/20 04:20:39;;;;;;;0.95;0.95;;;19.00;99.90;;;;;;5023629;28;20291;-65
2023/09/20 04:23:07;;;;;;;1.20;0.75;;;18.90;99.90;;;;;;5020854;28;20208;-66
2023/09/20 04:25:35;;;;;;;3.17;1.35;;;18.90;99.90;;;;;;5021218;28;20256;-65
2023/09/20 04:28:03;;;;;;;0.82;0.80;;;18.70;99.90;;;;;;5022930;28;20227;-66
2023/09/20 04:30:33;;;;;;;0.68;0.60;;;18.80;99.90;;;;;;5019484;28;20212;-65
2023/09/20 04:33:02;;;;;;;1.02;0.93;;;19.00;99.90;;;;;;5022572;28;20231;-67
2023/09/20 04:35:32;;;;;;;1.30;0.80;;;18.80;99.90;;;;;;5020111;28;20236;-65
2023/09/20 04:38:00;;;;;;;0.90;0.80;;;18.90;99.90;;;;;;5021660;28;20212;-65
2023/09/20 04:40:28;;;;;;;1.70;0.70;;;19.10;99.90;;;;;;5019178;28;20212;-67
2023/09/20 04:42:56;;;;;;;0.73;0.68;;;19.30;99.90;;;;;;5022382;28;20323;-64
2023/09/20 04:45:24;;;;;;;1.30;0.80;;;19.40;99.90;;;;;;5020081;28;20718;-66
2023/09/20 04:47:54;;;;;;;1.50;0.90;;;19.30;99.90;;;;;;5018384;28;20213;-66
2023/09/20 04:50:22;;;;;;;1.15;0.70;;;19.20;99.90;;;;;;5018253;28;20902;-66
2023/09/20 04:52:50;;;;;;;1.00;0.70;;;19.30;99.90;;;;;;5021823;28;21481;-65
2023/09/20 04:55:19;;;;;;;0.98;0.88;;;19.20;99.90;;;;;;5022192;28;20247;-63
2023/09/20 04:57:47;;;;;;;2.17;1.10;;;19.10;99.90;;;;;;5018170;28;20314;-65
2023/09/20 05:00:20;;;;;;;2.25;0.80;;;19.20;99.90;;;;;;5015261;28;20215;-66
2023/09/20 05:02:48;;;;;;;0.70;0.70;;;19.00;99.90;;;;;;5018866;28;20216;-64
2023/09/20 05:05:17;;;;;;;0.77;0.77;;;19.00;99.90;;;;;;5019967;28;21082;-64
2023/09/20 05:07:45;;;;;;;0.70;0.70;;;19.10;99.90;;;;;;5019705;28;20327;-67
2023/09/20 05:10:13;;;;;;;1.02;0.88;;;19.00;99.90;;;;;;5018092;28;20566;-64
2023/09/20 05:12:41;;;;;;;1.08;0.98;;;18.80;99.90;;;;;;5020293;28;20226;-66
2023/09/20 05:15:12;;;;;;;1.15;1.05;;;18.80;99.90;;;;;;5019412;28;20220;-64
2023/09/20 05:17:41;;;;;;;0.90;0.70;;;18.80;99.90;;;;;;5019032;28;20228;-64
2023/09/20 05:20:12;;;;;;;1.35;0.82;;;19.10;99.90;;;;;;5019121;28;20208;-64
2023/09/20 05:22:41;;;;;;;1.80;1.05;;;19.20;99.90;;;;;;5020358;28;20206;-67
2023/09/20 05:25:09;;;;;;;2.28;0.80;;;19.20;99.90;;;;;;5020179;28;20237;-66
2023/09/20 05:27:37;;;;;;;0.68;0.68;;;19.30;99.90;;;;;;5019336;28;20213;-64
2023/09/20 05:30:07;;;;;;;1.10;0.95;;;19.20;99.90;;;;;;5015098;28;20229;-66
2023/09/20 05:32:35;;;;;;;1.33;0.80;;;19.10;99.90;;;;;;5018091;28;20223;-64
2023/09/20 05:35:06;;;;;;;1.27;0.95;;;19.10;99.90;;;;;;5016545;28;20209;-64
2023/09/20 05:37:37;;;;;;;1.70;0.98;;;18.90;99.90;;;;;;5021385;28;20298;-64
2023/09/20 05:40:13;;;;;;;0.70;0.60;;;18.80;99.90;;;;;;5017760;28;20927;-64
2023/09/20 05:42:41;;;;;;;2.28;1.20;;;18.80;99.90;;;;;;5019412;28;20219;-65
2023/09/20 05:45:10;;;;;;;1.50;0.90;;;18.70;99.90;;;;;;5019478;28;20703;-66
2023/09/20 05:47:38;;;;;;;0.77;0.70;;;18.90;99.90;;;;;;5018670;28;20204;-64
2023/09/20 05:50:07;;;;;;;1.63;1.00;;;18.90;99.90;;;;;;5016008;28;20652;-66
2023/09/20 05:52:35;;;;;;;1.25;1.15;;;18.90;99.90;;;;;;5018363;28;20218;-64
2023/09/20 05:55:08;;;;;;;1.25;0.70;;;18.90;99.90;;;;;;5019359;28;20737;-65
2023/09/20 05:57:38;;;;;;;1.17;1.08;;;19.00;99.90;;;;;;5019271;28;20231;-66
2023/09/20 06:00:18;;;;;;;1.20;0.70;;;18.90;99.90;;;;;;5017062;28;20212;-69
2023/09/20 06:02:47;;;;;;;0.80;0.80;;;18.80;99.90;;;;;;5020394;28;20217;-66
2023/09/20 06:05:15;;;;;;;1.30;1.20;;;18.80;99.90;;;;;;5018677;28;20239;-65
2023/09/20 06:07:44;;;;;;;0.93;0.82;;;18.90;99.90;;;;;;5022889;28;20217;-63
2023/09/20 06:10:13;;;;;;;1.95;1.00;;;19.10;99.90;;;;;;5030698;28;20282;-64
2023/09/20 06:12:42;;;;;;;3.05;1.33;;;18.90;99.90;;;;;;5031135;28;20559;-63
2023/09/20 06:15:13;;;;;;;1.10;0.98;;;18.70;99.90;;;;;;5031851;28;20706;-64
2023/09/20 06:17:42;;;;;;;1.75;1.10;;;18.50;99.90;;;;;;5023058;28;20205;-63
2023/09/20 06:20:16;;;;;;;3.10;1.38;;;18.30;99.90;;;;;;5019639;28;20251;-64
2023/09/20 06:22:44;;;;;;;1.58;0.90;;;18.30;99.90;;;;;;5022361;28;20209;-64
2023/09/20 06:25:12;;;;;;;1.38;0.98;;;18.20;99.90;;;;;;5012138;28;20217;-64
2023/09/20 06:27:42;;;;;;;1.65;0.93;;;18.10;99.90;;;;;;5011999;28;20209;-63
2023/09/20 06:30:13;;;;;;;1.88;1.05;;;18.10;99.90;;;;;;5016298;28;20244;-63
2023/09/20 06:32:44;;;;;;;1.23;0.82;;;18.00;99.90;;;;;;5011716;28;20205;-63
2023/09/20 06:35:14;;;;;;;2.20;1.95;;;17.80;99.90;;;;;;5011998;28;20568;-64
2023/09/20 06:37:45;;;;;;;1.88;1.25;;;17.90;99.90;;;;;;5020310;28;20625;-64
2023/09/20 06:40:22;;;;;;;2.45;1.08;;;17.80;99.90;;;;;;5015234;28;20220;-64
2023/09/20 06:42:51;;;;;;;2.25;0.93;;;17.70;99.90;;;;;;5024179;28;20208;-64
2023/09/20 06:45:20;;;;;;;1.50;1.10;;;17.70;99.90;;;;;;5031431;28;20224;-64
2023/09/20 06:47:48;;;;;;;2.45;1.00;;;17.90;99.90;;;;;;5013688;28;20217;-63
2023/09/20 06:50:17;;;;;;;1.48;0.90;;;17.80;99.90;;;;;;5021703;28;20224;-64
2023/09/20 06:52:46;;;;;;;0.80;0.70;;;17.80;99.90;;;;;;5013764;28;20571;-63
2023/09/20 06:55:16;;;;;;;1.05;0.95;;;17.80;99.90;;;;;;5022376;28;20568;-63
2023/09/20 06:57:45;;;;;;;1.30;1.05;;;17.60;99.90;;;;;;5019741;28;20208;-63
2023/09/20 07:00:21;;;;;;;1.17;1.05;;;17.50;99.90;;;;;;5024748;28;20205;-64
2023/09/20 07:02:54;;;;;;;0.77;0.50;;;17.60;99.90;;;;;;5018146;28;20216;-65
2023/09/20 07:05:24;;;;;;;1.25;1.15;;;17.60;99.90;;;;;;5025211;28;20275;-63
2023/09/20 07:07:53;;;;;;;2.13;1.15;;;17.60;99.90;;;;;;5021413;28;20258;-63
2023/09/20 07:10:22;;;;;;;2.20;0.95;;;17.70;99.90;;;;;;5025336;28;20221;-63
2023/09/20 07:12:50;;;;;;;1.65;0.90;;;17.60;99.90;;;;;;5027894;28;20200;-63
2023/09/20 07:15:20;;;;;;;1.23;1.00;;;17.80;99.90;;;;;;5030655;28;20221;-63
2023/09/20 07:17:58;;;;;;;2.15;1.30;;;17.90;99.90;;;;;;5021694;28;20211;-63
2023/09/20 07:20:28;;;;;;;1.38;0.90;;;17.90;99.90;;;;;;5025960;28;20207;-63
2023/09/20 07:22:58;;;;;;;1.05;0.73;;;17.90;99.90;;;;;;5019767;28;20215;-64
2023/09/20 07:25:27;;;;;;;1.40;0.88;;;17.90;99.90;;;;;;5025514;28;20270;-64
2023/09/20 07:27:58;;;;;;;1.25;1.15;;;18.00;99.90;;;;;;5020754;28;20679;-63
2023/09/20 07:30:34;;;;;;;5.32;1.00;;;18.00;99.90;;;;;;5019153;28;20769;-63
2023/09/20 07:33:03;;;;;;;1.00;0.90;;;18.00;99.90;;;;;;5021200;28;20209;-63
2023/09/20 07:35:47;;;;;;;1.48;0.95;;;18.10;99.90;;;;;;5019171;28;20231;-63
2023/09/20 07:38:20;;;;;;;1.60;1.02;;;18.10;99.90;;;;;;5011274;28;20214;-63
2023/09/20 07:40:50;;;;;;;2.38;1.20;;;18.10;99.90;;;;;;5019046;28;20284;-63
2023/09/20 07:43:19;;;;;;;1.35;0.93;;;18.00;99.90;;;;;;5019876;28;20212;-63
2023/09/20 07:46:03;;;;;;;1.30;0.85;;;18.10;99.90;;;;;;5028626;28;20643;-63
2023/09/20 07:48:33;;;;;;;1.60;1.05;;;18.00;99.90;;;;;;5017625;28;20204;-63
2023/09/20 07:51:04;;;;;;;1.42;1.10;;;18.00;99.90;;;;;;5022448;28;20217;-63
2023/09/20 07:53:32;;;;;;;1.20;1.10;;;18.10;99.90;;;;;;5023558;28;20232;-64
2023/09/20 07:56:01;;;;;;;0.70;0.70;;;18.20;99.90;;;;;;5018925;28;20248;-64
2023/09/20 07:58:30;;;;;;;1.45;1.10;;;18.30;99.90;;;;;;5019084;28;20209;-63
2023/09/20 08:00:59;;;;;;;1.95;0.82;;;18.40;99.90;;;;;;5019025;28;20201;-63
2023/09/20 08:03:32;;;;;;;1.30;1.02;;;18.50;99.90;;;;;;5010767;28;20224;-63
2023/09/20 08:06:00;;;;;;;1.02;0.85;;;18.50;99.90;;;;;;5028611;28;20312;-64
2023/09/20 08:08:28;;;;;;;2.08;1.25;;;18.60;99.90;;;;;;5030517;28;20209;-63
2023/09/20 08:10:56;;;;;;;3.55;1.35;;;18.50;99.90;;;;;;5022173;28;20772;-63
2023/09/20 08:13:40;;;;;;;0.93;0.70;;;18.60;99.90;;;;;;5030247;28;20204;-63
2023/09/20 08:16:12;;;;;;;1.30;0.90;;;18.70;99.90;;;;;;5029352;28;20759;-64
2023/09/20 08:21:29;;;;;;;4.82;1.17;;;18.80;99.90;;;;;;5016409;28;20228;-63
2023/09/20 09:00:19;;;;;;;1.20;1.10;;;20.60;99.90;;;;;;5022041;28;20209;-64
2023/09/20 09:02:51;;;;;;;1.10;1.00;;;20.40;99.90;;;;;;5014019;28;20201;-63
2023/09/20 09:05:23;;;;;;;1.00;0.77;;;20.40;99.90;;;;;;5022806;28;20221;-63
2023/09/20 09:07:51;;;;;;;3.40;1.00;;;20.40;99.90;;;;;;5022006;28;20209;-64
2023/09/20 09:10:19;;;;;;;1.25;0.80;;;20.40;99.90;;;;;;5013686;28;20208;-64
2023/09/20 09:12:48;;;;;;;0.80;0.77;;;20.60;99.90;;;;;;5025753;28;20215;-64
2023/09/20 09:15:16;;;;;;;2.10;1.00;;;21.00;99.90;;;;;;5033015;28;20606;-63
2023/09/20 09:17:46;;;;;;;1.08;0.98;;;21.50;99.90;;;;;;5018653;28;20206;-63
2023/09/20 09:20:16;;;;;;;1.10;1.00;;;21.90;99.90;;;;;;5021027;28;20630;-64
2023/09/20 09:22:46;;;;;;;1.17;1.08;;;22.00;99.90;;;;;;5021447;28;20259;-65
2023/09/20 09:25:16;;;;;;;1.25;1.02;;;22.30;99.90;;;;;;5021288;28;20224;-63
2023/09/20 09:27:45;;;;;;;3.55;0.95;;;22.40;99.90;;;;;;5013494;28;20201;-64
2023/09/20 09:30:15;;;;;;;1.08;0.90;;;22.50;99.90;;;;;;5018506;28;20218;-64
2023/09/20 09:32:45;;;;;;;1.50;1.20;;;22.50;99.90;;;;;;5013010;28;20239;-64
2023/09/20 09:35:15;;;;;;;1.63;0.90;;;22.60;99.90;;;;;;5020935;28;20316;-65
2023/09/20 09:37:51;;;;;;;0.70;0.70;;;22.90;99.90;;;;;;5015023;28;20204;-64
2023/09/20 09:40:21;;;;;;;2.47;1.00;;;22.90;99.90;;;;;;5013266;28;20212;-64
2023/09/20 09:42:50;;;;;;;4.25;1.10;;;23.00;99.90;;;;;;5028874;28;20211;-64
2023/09/20 09:45:30;;;;;;;1.42;1.33;;;23.20;99.90;;;;;;5029108;28;20731;-64
2023/09/20 09:48:01;;;;;;;1.63;1.10;;;23.70;99.90;;;;;;5015294;28;20200;-64
2023/09/20 09:50:38;;;;;;;1.52;0.98;;;23.90;99.90;;;;;;5013079;28;20289;-64
2023/09/20 09:53:09;;;;;;;1.83;0.82;;;24.30;99.90;;;;;;5022616;28;20221;-64
2023/09/20 09:55:38;;;;;;;1.08;0.93;;;24.60;99.90;;;;;;5018541;28;20672;-64
2023/09/20 09:58:06;;;;;;;1.45;0.98;;;24.80;99.90;;;;;;5022396;28;20598;-64
2023/09/20 10:00:36;;;;;;;1.48;1.13;;;24.50;99.90;;;;;;5012856;28;20729;-64
2023/09/20 10:03:12;;;;;;;2.30;0.90;;;24.40;99.90;;;;;;5012409;28;20205;-64
2023/09/20 10:05:42;;;;;;;3.50;1.02;;;24.60;99.90;;;;;;5020203;28;20216;-64
2023/09/20 10:08:14;;;;;;;3.40;0.90;;;24.80;99.90;;;;;;5014127;28;20550;-64
2023/09/20 10:10:42;;;;;;;1.30;0.82;;;24.90;99.90;;;;;;5021044;28;20211;-64
2023/09/20 10:13:14;;;;;;;1.35;0.88;;;24.90;99.90;;;;;;5027663;28;20224;-64
2023/09/20 10:15:43;;;;;;;1.90;0.80;;;24.60;99.90;;;;;;5031814;28;20310;-64
2023/09/20 10:18:12;;;;;;;1.50;0.90;;;24.40;99.90;;;;;;5014661;28;21457;-64
2023/09/20 10:20:58;;;;;;;0.70;0.60;;;24.30;99.90;;;;;;5020716;28;20690;-64
2023/09/20 10:23:28;;;;;;;0.88;0.80;;;24.10;99.90;;;;;;5021660;28;20205;-64
2023/09/20 10:26:00;;;;;;;1.10;0.65;;;24.10;99.90;;;;;;5020091;28;20307;-64
2023/09/20 10:28:37;;;;;;;1.92;0.73;;;24.30;99.90;;;;;;5020655;28;20263;-64
2023/09/20 10:31:06;;;;;;;1.00;0.70;;;24.40;99.90;;;;;;5021296;28;20204;-64
2023/09/20 10:33:48;;;;;;;0.80;0.70;;;24.70;99.90;;;;;;5027969;28;20208;-64
2023/09/20 10:36:20;;;;;;;1.17;0.60;;;25.10;99.90;;;;;;5013049;28;20235;-64
2023/09/20 10:39:10;;;;;;;1.60;0.60;;;25.70;99.90;;;;;;5012272;28;20664;-64
2023/09/20 10:41:41;;;;;;;1.00;0.70;;;25.80;99.90;;;;;;5017590;28;20258;-64
2023/09/20 10:44:23;;;;;;;0.70;0.63;;;25.80;99.90;;;;;;5030806;28;20204;-64
2023/09/20 10:46:53;;;;;;;1.20;0.80;;;26.10;99.90;;;;;;5024573;28;20319;-65
2023/09/20 10:49:41;;;;;;;0.80;0.70;;;25.80;99.90;;;;;;5011871;28;20657;-64
2023/09/20 10:52:09;;;;;;;1.08;0.98;;;26.00;99.90;;;;;;5021091;28;20227;-64
2023/09/20 10:54:39;;;;;;;0.70;0.60;;;25.90;99.90;;;;;;5018409;28;20201;-64
2023/09/20 10:57:09;;;;;;;1.98;0.93;;;25.80;99.90;;;;;;5013949;28;20806;-64
2023/09/20 10:59:40;;;;;;;0.70;0.65;;;25.50;99.90;;;;;;5016919;28;20211;-64
2023/09/20 11:02:10;;;;;;;0.65;0.60;;;25.70;99.90;;;;;;5013961;28;20205;-64
2023/09/20 11:04:39;;;;;;;2.65;0.70;;;25.70;99.90;;;;;;5025509;28;20660;-64
2023/09/20 11:07:08;;;;;;;0.93;0.73;;;25.50;99.90;;;;;;5021308;28;20225;-65
2023/09/20 11:09:39;;;;;;;0.90;0.70;;;25.70;99.90;;;;;;5016329;28;20658;-64
2023/09/20 11:12:08;;;;;;;0.95;0.85;;;26.20;99.90;;;;;;5028930;28;20217;-64
2023/09/20 11:14:38;;;;;;;0.95;0.70;;;26.40;99.90;;;;;;5030828;28;20323;-64
2023/09/20 11:17:09;;;;;;;1.73;0.80;;;26.70;99.90;;;;;;5021123;28;20731;-64
2023/09/20 11:19:39;;;;;;;0.80;0.70;;;26.90;99.90;;;;;;5018782;28;20580;-65
2023/09/20 11:22:07;;;;;;;1.08;0.70;;;27.10;99.90;;;;;;5011861;28;20205;-65
2023/09/20 11:24:39;;;;;;;0.68;0.52;;;26.80;99.90;;;;;;5026270;28;20205;-64
2023/09/20 11:27:08;;;;;;;1.35;0.85;;;26.70;99.90;;;;;;5019339;28;20235;-64
2023/09/20 11:29:38;;;;;;;1.65;0.88;;;26.60;99.90;;;;;;5014240;28;20264;-64
2023/09/20 11:32:10;;;;;;;1.73;0.80;;;26.30;99.90;;;;;;5019113;28;20236;-65
2023/09/20 11:34:43;;;;;;;0.90;0.60;;;26.20;99.90;;;;;;5019114;28;20215;-64
2023/09/20 11:37:14;;;;;;;1.27;0.77;;;26.00;99.90;;;;;;5019295;28;20243;-64
2023/09/20 11:39:45;;;;;;;0.80;0.60;;;25.90;99.90;;;;;;5014294;28;20687;-64
2023/09/20 11:42:24;;;;;;;1.05;0.75;;;25.70;99.90;;;;;;5019173;28;20613;-64
2023/09/20 11:44:57;;;;;;;0.80;0.70;;;25.50;99.90;;;;;;5025326;28;20207;-64
2023/09/20 11:47:44;;;;;;;0.80;0.63;;;25.40;99.90;;;;;;5011216;28;20209;-64
2023/09/20 11:50:14;;;;;;;1.15;0.75;;;25.10;99.90;;;;;;5013784;28;20205;-64
2023/09/20 11:52:45;;;;;;;0.90;0.70;;;24.90;99.90;;;;;;5010981;28;20303;-64
2023/09/20 11:55:15;;;;;;;0.70;0.60;;;24.90;99.90;;;;;;5010615;28;20235;-64
2023/09/20 11:57:45;;;;;;;0.90;0.60;;;25.20;99.90;;;;;;5019231;28;20213;-64
2023/09/20 12:00:17;;;;;;;1.70;0.90;;;25.60;99.90;;;;;;5013841;28;20213;-64
2023/09/20 12:02:45;;;;;;;0.85;0.70;;;25.40;99.90;;;;;;5011199;28;20209;-64
2023/09/20 12:05:13;;;;;;;0.90;0.60;;;25.10;99.90;;;;;;5010402;28;20233;-64
2023/09/20 12:07:52;;;;;;;1.60;0.88;;;25.10;99.90;;;;;;5019120;28;20205;-64
2023/09/20 12:10:21;;;;;;;0.70;0.60;;;25.60;99.90;;;;;;5020402;28;20213;-64
2023/09/20 12:12:51;;;;;;;0.80;0.70;;;26.10;99.90;;;;;;5029089;28;20224;-64
2023/09/20 12:15:21;;;;;;;0.80;0.70;;;26.50;99.90;;;;;;5029464;28;20228;-64
2023/09/20 12:17:50;;;;;;;2.03;1.55;;;26.40;99.90;;;;;;5017144;28;20221;-64
2023/09/20 12:20:18;;;;;;;2.08;0.70;;;26.00;99.90;;;;;;5012477;28;20583;-64
2023/09/20 12:22:46;;;;;;;0.70;0.60;;;26.00;99.90;;;;;;5019080;28;20198;-64
2023/09/20 12:25:15;;;;;;;1.25;0.70;;;26.20;99.90;;;;;;5010219;28;20232;-64
2023/09/20 12:27:45;;;;;;;1.13;0.70;;;26.40;99.90;;;;;;5011375;28;20763;-64
2023/09/20 12:30:14;;;;;;;1.05;0.80;;;26.40;99.90;;;;;;5024099;28;20235;-64
2023/09/20 12:32:42;;;;;;;1.00;0.68;;;26.20;99.90;;;;;;5014464;28;20225;-64
2023/09/20 12:35:13;;;;;;;0.80;0.73;;;26.10;99.90;;;;;;5013852;28;20225;-64
2023/09/20 12:37:41;;;;;;;0.90;0.70;;;26.20;99.90;;;;;;5014660;28;20212;-64
2023/09/20 12:40:10;;;;;;;1.05;0.80;;;26.10;99.90;;;;;;5022225;28;20280;-63
2023/09/20 12:42:39;;;;;;;1.00;0.70;;;25.70;99.90;;;;;;5033601;28;20201;-64
2023/09/20 12:45:09;;;;;;;0.80;0.60;;;25.80;99.90;;;;;;5033331;28;20744;-64
2023/09/20 12:47:39;;;;;;;0.70;0.65;;;26.30;99.90;;;;;;5022324;28;20216;-64
2023/09/20 12:50:12;;;;;;;1.00;0.73;;;26.90;99.90;;;;;;5023232;28;20212;-64
2023/09/20 12:52:43;;;;;;;0.80;0.70;;;26.90;99.90;;;;;;5026411;28;20221;-64
2023/09/20 12:55:13;;;;;;;1.15;1.05;;;27.10;99.90;;;;;;5024918;28;20286;-64
2023/09/20 12:57:42;;;;;;;0.60;0.50;;;27.00;99.90;;;;;;5018149;28;20205;-64
2023/09/20 13:00:16;;;;;;;3.08;0.60;;;26.80;99.90;;;;;;5032899;28;20204;-64
2023/09/20 13:03:03;;;;;;;1.02;0.88;;;26.40;99.90;;;;;;5014057;28;20233;-64
2023/09/20 13:05:31;;;;;;;2.95;1.27;;;26.30;99.90;;;;;;5013166;28;20237;-65
2023/09/20 13:08:00;;;;;;;2.30;1.80;;;26.20;99.90;;;;;;5021959;28;20213;-64
2023/09/20 13:10:29;;;;;;;0.70;0.68;;;26.30;99.90;;;;;;5021303;28;20212;-64
2023/09/20 13:12:57;;;;;;;0.82;0.65;;;26.80;99.90;;;;;;5027225;28;20267;-64
2023/09/20 13:15:26;;;;;;;4.20;1.00;;;26.90;99.00;;;;;;5024187;28;20758;-65
2023/09/20 13:17:56;;;;;;;0.80;0.70;;;26.80;99.60;;;;;;5019541;28;20312;-65
2023/09/20 13:20:27;;;;;;;1.88;0.70;;;26.60;99.50;;;;;;5017556;28;20216;-64
2023/09/20 13:22:56;;;;;;;0.82;0.60;;;26.50;99.90;;;;;;5013751;28;20599;-64
2023/09/20 13:25:27;;;;;;;0.60;0.50;;;26.70;99.90;;;;;;5012950;28;20244;-64
2023/09/20 13:27:55;;;;;;;0.90;0.70;;;27.40;98.50;;;;;;5019239;28;20600;-65
2023/09/20 13:30:24;;;;;;;0.98;0.88;;;27.60;97.60;;;;;;5014634;28;20213;-65
2023/09/20 13:32:54;;;;;;;1.95;0.80;;;27.40;97.60;;;;;;5013084;28;20205;-64
2023/09/20 13:35:22;;;;;;;0.95;0.70;;;27.40;97.60;;;;;;5021298;28;20224;-64
2023/09/20 13:37:50;;;;;;;1.60;0.85;;;27.00;97.50;;;;;;5018195;28;20294;-64
2023/09/20 13:40:19;;;;;;;1.15;0.75;;;26.60;98.30;;;;;;5022746;28;20679;-65
2023/09/20 13:42:47;;;;;;;0.70;0.60;;;26.80;98.30;;;;;;5032026;28;20212;-65